Argyle, WI

6:03 AM CST on November 27, 2014 (GMT -0600)
Johnson's Mountain | Change Station
CLOSE
Current Station
Personal Weather Station
Location: Blanchardville, WI
Elevation: 1076 ft
Nearby Weather Stations

Elev 1076 ft 42.80 °N, 89.79 °W | Updated 8 minutes ago

Overcast
Overcast
21.9 °F
Feels Like 22 °F
N
1.0
Wind Variable Wind from NW
Gusts 8.0 mph

Today
High -- | Low -- °F
--% Chance of Precip.
Yesterday
High -- | Low -- °F
Precip. -- in
7:05 AM 4:28 PM
Waxing Crescent, 29% visible
Pressure 30.27 in
Visibility 10.0 miles
Clouds Mostly Cloudy 2300 ft
Overcast 3000 ft
Windchill 22 °F
Dew Point 19 °F
Humidity 90%
Rainfall 0.00 in
Snow Depth Not available.
UV 0 out of 12
Pollen .10 out of 12
Air Quality Not available.
Flu Activity Not available.
METAR KEFT 271135Z AUTO 31009KT 10SM BKN023 OVC030 M05/M06 A3027 RMK AO2

More Conditions Fewer Conditions

Pressure 30.27 in
Visibility 10.0 miles
Clouds Mostly Cloudy 2300 ft
Overcast 3000 ft
Windchill 22 °F
Dew Point 19 °F
Humidity 90%
Rainfall 0.00 in
Snow Depth Not available.
UV 0 out of 12
Pollen .10 out of 12
Air Quality Not available.
Flu Activity Not available.
METAR KEFT 271135Z AUTO 31009KT 10SM BKN023 OVC030 M05/M06 A3027 RMK AO2

More Conditions Fewer Conditions

10-Day Weather Forecast

Almanac

Astronomy

Nov. 27, 2014 Rise Set
Actual Time
Civil Twilight
Nautical Twilight
Astronomical Twilight
Moon
Length of Visible Light
Length of Day
Tomorrow will be .
, % of the Moon is Illuminated

Today's Extremes

State Highs State Lows

Community

WunderPhotos

Upload Photos

1,773,975 photos uploaded!

WunderBlogs® & News

Nearby

Air Quality

  Air Quality AQ Index Pollutant
Not available.

Snow Depth

Station Depth Elevation

Earthquake Activity

City Distance Mag. Time & Date
Minimum magnitude displayed is 2.5.

Coastal Water Temperatures

Place Temperature

Nearby Weather Stations